createdAt,value
2023-04-12T00:01:22.070Z,9.10
2023-04-12T00:03:51.045Z,9.00
2023-04-12T00:06:25.503Z,9.00
2023-04-12T00:08:52.306Z,9.10
2023-04-12T00:11:19.184Z,9.10
2023-04-12T00:13:46.033Z,9.10
2023-04-12T00:16:15.809Z,9.10
2023-04-12T00:18:45.444Z,9.10
2023-04-12T00:21:13.379Z,9.10
2023-04-12T00:23:40.784Z,9.00
2023-04-12T00:26:08.675Z,9.10
2023-04-12T00:28:37.339Z,9.10
2023-04-12T00:31:04.716Z,9.10
2023-04-12T00:33:33.595Z,9.10
2023-04-12T00:36:00.693Z,9.10
2023-04-12T00:38:28.850Z,9.10
2023-04-12T00:40:57.451Z,9.20
2023-04-12T00:43:27.854Z,9.20
2023-04-12T00:45:57.169Z,9.10
2023-04-12T00:48:27.556Z,9.00
2023-04-12T00:50:56.000Z,9.00
2023-04-12T00:53:23.162Z,9.00
2023-04-12T00:55:51.608Z,9.10
2023-04-12T00:58:24.788Z,9.00
2023-04-12T01:00:53.861Z,9.00
2023-04-12T01:03:27.811Z,9.00
2023-04-12T01:06:04.508Z,9.00
2023-04-12T01:09:15.889Z,9.00
2023-04-12T01:11:51.532Z,9.00
2023-04-12T01:14:39.617Z,9.00
2023-04-12T01:17:14.401Z,8.90
2023-04-12T01:20:17.027Z,8.90
2023-04-12T01:23:24.325Z,9.00
2023-04-12T01:26:08.312Z,9.00
2023-04-12T01:28:41.322Z,9.00
2023-04-12T01:31:12.782Z,8.90
2023-04-12T01:33:43.384Z,9.00
2023-04-12T01:36:21.409Z,9.00
2023-04-12T01:38:49.812Z,8.90
2023-04-12T01:41:21.043Z,8.90
2023-04-12T01:43:48.394Z,9.00
2023-04-12T01:46:18.531Z,9.00
2023-04-12T01:48:51.333Z,8.90
2023-04-12T01:51:52.583Z,9.00
2023-04-12T01:54:29.316Z,8.90
2023-04-12T01:57:02.631Z,9.00
2023-04-12T01:59:40.773Z,9.10
2023-04-12T02:02:13.201Z,9.10
2023-04-12T02:04:41.621Z,9.10
2023-04-12T02:07:09.527Z,9.20
2023-04-12T02:09:38.797Z,9.10
2023-04-12T02:12:07.239Z,9.10
2023-04-12T02:14:37.230Z,9.20
2023-04-12T02:17:05.773Z,9.10
2023-04-12T02:19:33.128Z,9.10
2023-04-12T02:22:01.108Z,9.10
2023-04-12T02:24:29.430Z,9.10
2023-04-12T02:26:59.362Z,9.20
2023-04-12T02:29:27.819Z,9.20
2023-04-12T02:31:54.666Z,9.10
2023-04-12T02:34:25.212Z,9.20
2023-04-12T02:37:04.826Z,9.20
2023-04-12T02:39:34.619Z,9.10
2023-04-12T02:42:01.767Z,9.10
2023-04-12T02:44:32.960Z,9.10
2023-04-12T02:47:11.339Z,9.20
2023-04-12T02:49:41.764Z,9.10
2023-04-12T02:52:12.674Z,9.20
2023-04-12T02:54:52.971Z,9.10
2023-04-12T02:57:22.452Z,9.10
2023-04-12T02:59:53.899Z,9.10
2023-04-12T03:02:47.651Z,9.10
2023-04-12T03:05:20.584Z,9.10
2023-04-12T03:07:49.089Z,9.10
2023-04-12T03:10:19.994Z,9.10
2023-04-12T03:12:58.871Z,9.20
2023-04-12T03:15:33.294Z,9.10
2023-04-12T03:18:05.409Z,9.10
2023-04-12T03:20:46.063Z,9.10
2023-04-12T03:23:20.162Z,9.20
2023-04-12T03:25:52.609Z,9.10
2023-04-12T03:28:35.346Z,9.10
2023-04-12T03:31:06.430Z,9.20
2023-04-12T03:33:44.255Z,9.20
2023-04-12T03:36:23.926Z,9.20
2023-04-12T03:38:59.752Z,9.40
2023-04-12T03:41:29.843Z,9.30
2023-04-12T03:43:57.012Z,9.30
2023-04-12T03:46:24.288Z,9.30
2023-04-12T03:48:57.211Z,9.30
2023-04-12T03:51:27.058Z,9.40
2023-04-12T03:54:04.817Z,9.30
2023-04-12T03:56:58.937Z,9.20
2023-04-12T03:59:35.888Z,9.20
2023-04-12T04:02:04.160Z,9.20
2023-04-12T04:04:35.454Z,9.20
2023-04-12T04:07:06.517Z,9.30
2023-04-12T04:09:40.849Z,9.20
2023-04-12T04:12:09.423Z,9.20
2023-04-12T04:14:39.597Z,9.20
2023-04-12T04:17:16.476Z,9.40
2023-04-12T04:19:44.644Z,9.40
2023-04-12T04:22:13.315Z,9.40
2023-04-12T04:24:40.660Z,9.40
2023-04-12T04:27:08.298Z,9.30
2023-04-12T04:29:44.376Z,9.40
2023-04-12T04:32:13.449Z,9.40
2023-04-12T04:34:40.555Z,9.40
2023-04-12T04:37:13.458Z,9.40
2023-04-12T04:39:44.376Z,9.40
2023-04-12T04:42:12.419Z,9.30
2023-04-12T04:44:40.679Z,9.30
2023-04-12T04:47:14.558Z,9.30
2023-04-12T04:49:44.293Z,9.20
2023-04-12T04:52:24.631Z,9.20
2023-04-12T04:54:58.031Z,9.20
2023-04-12T04:57:31.554Z,9.20
2023-04-12T04:59:58.473Z,9.30
2023-04-12T05:02:26.095Z,9.30
2023-04-12T05:04:56.468Z,9.30
2023-04-12T05:07:27.251Z,9.40
2023-04-12T05:09:54.241Z,9.30
2023-04-12T05:12:22.608Z,9.30
2023-04-12T05:14:55.578Z,9.40
2023-04-12T05:17:41.377Z,9.40
2023-04-12T05:20:10.871Z,9.40
2023-04-12T05:22:40.670Z,9.60
2023-04-12T05:25:07.982Z,9.80
2023-04-12T05:27:41.934Z,9.80
2023-04-12T05:30:14.648Z,9.80
2023-04-12T05:32:42.259Z,9.80
2023-04-12T05:35:12.027Z,9.90
2023-04-12T05:37:40.980Z,9.90
2023-04-12T05:40:12.224Z,9.90
2023-04-12T05:42:39.270Z,9.80
2023-04-12T05:45:08.183Z,9.80
2023-04-12T05:47:41.154Z,9.70
2023-04-12T05:50:08.505Z,9.80
2023-04-12T05:52:37.675Z,9.80
2023-04-12T05:55:10.394Z,9.90
2023-04-12T05:57:44.773Z,9.90
2023-04-12T06:00:24.078Z,9.90
2023-04-12T06:02:59.403Z,9.90
2023-04-12T06:05:29.119Z,9.90
2023-04-12T06:08:00.235Z,10.00
2023-04-12T06:10:28.265Z,10.00
2023-04-12T06:12:55.589Z,10.00
2023-04-12T06:15:22.991Z,10.00
2023-04-12T06:17:55.084Z,10.00
2023-04-12T06:20:22.080Z,10.20
2023-04-12T06:22:50.655Z,10.20
2023-04-12T06:25:19.432Z,10.20
2023-04-12T06:27:48.993Z,10.20
2023-04-12T06:30:19.630Z,10.30
2023-04-12T06:32:47.245Z,10.30
2023-04-12T06:38:57.409Z,10.30
2023-04-12T06:41:26.101Z,10.20
2023-04-12T06:44:04.076Z,10.30
2023-04-12T06:46:31.483Z,10.10
2023-04-12T06:48:58.860Z,10.20
2023-04-12T06:51:26.177Z,10.20
2023-04-12T06:53:54.771Z,10.10
2023-04-12T06:56:21.581Z,10.00
2023-04-12T06:58:48.497Z,10.00
2023-04-12T07:01:15.497Z,10.00
2023-04-12T07:03:43.589Z,10.20
2023-04-12T07:06:24.204Z,10.20
2023-04-12T07:08:53.137Z,10.20
2023-04-12T07:11:23.108Z,10.00
2023-04-12T07:13:51.278Z,10.00
2023-04-12T07:16:19.244Z,10.00
2023-04-12T07:18:46.417Z,10.10
2023-04-12T07:21:14.607Z,10.20
2023-04-12T07:23:43.257Z,10.20
2023-04-12T07:26:10.371Z,10.30
2023-04-12T07:28:40.450Z,10.50
2023-04-12T07:31:09.264Z,10.20
2023-04-12T07:33:38.732Z,10.00
2023-04-12T07:36:08.066Z,10.00
2023-04-12T07:38:36.385Z,10.00
2023-04-12T07:41:03.614Z,9.90
2023-04-12T07:43:31.310Z,10.00
2023-04-12T07:45:59.536Z,10.00
2023-04-12T07:48:26.786Z,10.20
2023-04-12T07:50:53.809Z,10.10
2023-04-12T07:53:26.583Z,10.10
2023-04-12T07:55:54.708Z,10.10
2023-04-12T07:58:24.675Z,10.20
2023-04-12T08:00:53.883Z,10.20
2023-04-12T08:03:22.193Z,10.00
2023-04-12T08:05:53.755Z,10.00
2023-04-12T08:08:22.574Z,10.10
2023-04-12T08:10:49.946Z,10.00
2023-04-12T08:13:18.937Z,10.20
2023-04-12T08:15:47.963Z,10.20
2023-04-12T08:18:17.013Z,10.30
2023-04-12T08:20:44.412Z,10.30
2023-04-12T08:23:12.967Z,10.30
2023-04-12T08:25:41.506Z,10.60
2023-04-12T08:28:08.831Z,10.70
2023-04-12T08:30:36.732Z,10.60
2023-04-12T08:33:04.205Z,10.50
2023-04-12T08:35:31.853Z,10.60
2023-04-12T08:38:00.270Z,10.60
2023-04-12T08:40:27.245Z,10.70
2023-04-12T08:42:54.779Z,10.80
2023-04-12T08:45:48.357Z,10.90
2023-04-12T08:48:20.407Z,11.20
2023-04-12T08:50:49.545Z,11.30
2023-04-12T08:53:17.889Z,11.40
2023-04-12T08:55:45.961Z,11.70
2023-04-12T08:58:15.501Z,11.90
2023-04-12T09:00:44.673Z,12.10
2023-04-12T09:03:12.903Z,12.30
2023-04-12T09:05:39.963Z,12.20
2023-04-12T09:08:10.156Z,12.20
2023-04-12T09:10:38.384Z,11.90
2023-04-12T09:13:06.638Z,11.70
2023-04-12T09:15:34.518Z,11.90
2023-04-12T09:18:10.119Z,12.20
2023-04-12T09:20:39.558Z,12.00
2023-04-12T09:23:21.516Z,11.90
2023-04-12T09:25:53.687Z,11.50
2023-04-12T09:28:23.299Z,11.60
2023-04-12T09:30:56.059Z,11.80
2023-04-12T09:33:35.522Z,12.10
2023-04-12T09:36:05.625Z,12.10
2023-04-12T09:38:34.069Z,11.90
2023-04-12T09:41:26.955Z,11.70
2023-04-12T09:44:09.806Z,11.50
2023-04-12T09:46:52.319Z,11.70
2023-04-12T09:49:19.774Z,12.10
2023-04-12T09:51:51.643Z,12.10
2023-04-12T09:54:18.790Z,12.20
2023-04-12T09:56:49.285Z,12.30
2023-04-12T09:59:19.190Z,12.30
2023-04-12T10:01:47.071Z,12.30
2023-04-12T10:04:17.823Z,11.80
2023-04-12T10:06:46.072Z,11.70
2023-04-12T10:09:14.522Z,11.90
2023-04-12T10:11:43.502Z,12.10
2023-04-12T10:14:12.036Z,12.50
2023-04-12T10:16:43.206Z,12.40
2023-04-12T10:19:13.283Z,12.00
2023-04-12T10:21:42.326Z,11.30
2023-04-12T10:27:11.488Z,11.30
2023-04-12T10:29:53.747Z,11.70
2023-04-12T10:32:27.540Z,11.80
2023-04-12T10:35:01.117Z,11.70
2023-04-12T10:38:02.577Z,11.60
2023-04-12T10:40:33.061Z,11.70
2023-04-12T10:43:22.605Z,11.70
2023-04-12T10:45:50.997Z,11.70
2023-04-12T10:48:39.703Z,11.80
2023-04-12T10:51:25.273Z,12.30
2023-04-12T10:54:15.445Z,12.60
2023-04-12T10:56:47.574Z,12.90
2023-04-12T10:59:34.321Z,13.00
2023-04-12T11:02:10.244Z,13.00
2023-04-12T11:04:38.450Z,12.60
2023-04-12T11:07:12.349Z,12.50
2023-04-12T11:09:43.792Z,12.80
2023-04-12T11:12:18.612Z,13.00
2023-04-12T11:14:52.453Z,13.10
2023-04-12T11:17:26.235Z,13.50
2023-04-12T11:20:00.240Z,13.80
2023-04-12T11:22:31.236Z,13.60
2023-04-12T11:25:03.270Z,13.60
2023-04-12T11:27:34.467Z,13.80
2023-04-12T11:30:01.893Z,14.00
2023-04-12T11:32:31.729Z,13.20
2023-04-12T11:35:02.238Z,13.30
2023-04-12T11:41:50.658Z,13.80
2023-04-12T11:45:18.758Z,13.30
2023-04-12T11:47:49.679Z,12.60
2023-04-12T11:50:30.019Z,12.60
2023-04-12T11:53:12.969Z,12.30
2023-04-12T11:55:39.891Z,11.50
2023-04-12T11:58:07.340Z,10.80
2023-04-12T12:00:35.488Z,10.50
2023-04-12T12:03:07.735Z,10.30
2023-04-12T12:05:38.472Z,10.00
2023-04-12T12:08:07.956Z,9.80
2023-04-12T12:10:47.010Z,9.70
2023-04-12T12:13:46.254Z,9.90
2023-04-12T12:16:15.888Z,9.90
2023-04-12T12:18:45.571Z,10.10
2023-04-12T12:21:14.621Z,10.20
2023-04-12T12:23:45.968Z,10.40
2023-04-12T12:26:28.033Z,10.40
2023-04-12T12:29:00.767Z,10.10
2023-04-12T12:31:30.269Z,10.00
2023-04-12T12:34:03.129Z,9.80
2023-04-12T12:36:39.179Z,10.00
2023-04-12T12:39:12.736Z,10.10
2023-04-12T12:41:43.453Z,10.30
2023-04-12T12:44:13.381Z,10.30
2023-04-12T12:46:55.066Z,10.40
2023-04-12T12:49:33.748Z,10.60
2023-04-12T12:52:01.348Z,10.80
2023-04-12T12:54:39.346Z,10.90
2023-04-12T12:57:09.746Z,10.80
2023-04-12T12:59:36.950Z,10.90
2023-04-12T13:02:09.307Z,11.00
2023-04-12T13:04:45.629Z,11.00
2023-04-12T13:07:17.883Z,11.00
2023-04-12T13:10:58.277Z,10.90
2023-04-12T13:13:29.863Z,10.80
2023-04-12T13:15:57.837Z,11.00
2023-04-12T13:18:26.165Z,11.50
2023-04-12T13:20:56.775Z,11.90
2023-04-12T13:23:28.786Z,11.90
2023-04-12T13:25:55.787Z,11.50
2023-04-12T13:28:26.062Z,10.80
2023-04-12T13:30:55.621Z,10.80
2023-04-12T13:33:24.723Z,10.60
2023-04-12T13:35:57.725Z,10.40
2023-04-12T13:38:25.055Z,10.50
2023-04-12T13:40:56.620Z,10.50
2023-04-12T13:43:23.785Z,10.40
2023-04-12T13:48:33.848Z,10.40
2023-04-12T13:51:02.186Z,10.40
2023-04-12T13:54:26.572Z,10.40
2023-04-12T13:57:24.194Z,10.50
2023-04-12T14:00:05.896Z,10.00
2023-04-12T14:02:59.497Z,9.50
2023-04-12T14:05:29.104Z,9.20
2023-04-12T14:07:58.218Z,9.20
2023-04-12T14:10:26.171Z,9.50
2023-04-12T14:12:54.238Z,9.70
2023-04-12T14:15:48.515Z,9.60
2023-04-12T14:22:35.539Z,9.60
2023-04-12T14:25:10.106Z,9.90
2023-04-12T14:28:00.180Z,10.10
2023-04-12T14:30:52.832Z,10.30
2023-04-12T14:33:34.062Z,10.40
2023-04-12T14:36:27.864Z,10.50
2023-04-12T14:38:57.792Z,10.60
2023-04-12T14:42:20.105Z,10.70
2023-04-12T14:48:51.086Z,10.80
2023-04-12T14:52:13.199Z,11.10
2023-04-12T14:54:44.388Z,11.10
2023-04-12T14:57:12.425Z,11.00
2023-04-12T14:59:39.394Z,11.10
2023-04-12T15:02:07.942Z,11.30
2023-04-12T15:04:39.358Z,11.30
2023-04-12T15:07:06.343Z,11.50
2023-04-12T15:09:34.281Z,11.70
2023-04-12T15:12:05.864Z,11.70
2023-04-12T15:14:32.903Z,11.90
2023-04-12T15:17:03.070Z,11.90
2023-04-12T15:19:31.528Z,11.90
2023-04-12T15:22:05.437Z,11.80
2023-04-12T15:24:36.325Z,11.90
2023-04-12T15:27:06.553Z,11.90
2023-04-12T15:29:52.451Z,11.90
2023-04-12T15:32:21.781Z,12.20
2023-04-12T15:34:51.843Z,12.50
2023-04-12T15:37:24.147Z,12.50
2023-04-12T15:39:51.541Z,12.50
2023-04-12T15:42:19.418Z,12.70
2023-04-12T15:44:49.460Z,13.00
2023-04-12T15:47:46.756Z,13.20
2023-04-12T15:50:14.233Z,13.20
2023-04-12T15:52:43.327Z,13.10
2023-04-12T15:55:40.891Z,12.90
2023-04-12T15:58:09.162Z,12.90
2023-04-12T16:00:39.110Z,12.70
2023-04-12T16:03:07.940Z,12.70
2023-04-12T16:05:35.522Z,12.90
2023-04-12T16:08:03.193Z,13.00
2023-04-12T16:13:11.204Z,12.90
2023-04-12T16:15:38.867Z,12.90
2023-04-12T16:18:08.594Z,12.80
2023-04-12T16:20:35.609Z,12.70
2023-04-12T16:23:03.768Z,12.60
2023-04-12T16:25:33.927Z,12.40
2023-04-12T16:28:02.546Z,12.20
2023-04-12T16:30:32.058Z,12.30
2023-04-12T16:33:00.024Z,12.30
2023-04-12T16:35:27.168Z,12.40
2023-04-12T16:37:54.712Z,12.40
2023-04-12T16:40:25.274Z,12.40
2023-04-12T16:42:53.436Z,12.50
2023-04-12T16:45:24.729Z,12.10
2023-04-12T16:47:57.092Z,12.10
2023-04-12T16:50:26.060Z,11.90
2023-04-12T16:52:54.992Z,11.70
2023-04-12T16:55:22.136Z,11.60
2023-04-12T16:57:53.061Z,11.50
2023-04-12T17:00:23.768Z,11.50
2023-04-12T17:02:52.688Z,11.30
2023-04-12T17:05:21.339Z,10.90
2023-04-12T17:07:51.421Z,10.80
2023-04-12T17:11:18.639Z,10.80
2023-04-12T17:13:50.053Z,10.50
2023-04-12T17:16:19.490Z,10.50
2023-04-12T17:18:52.172Z,10.50
2023-04-12T17:21:26.165Z,10.70
2023-04-12T17:23:56.238Z,10.60
2023-04-12T17:26:26.848Z,10.40
2023-04-12T17:28:56.466Z,10.50
2023-04-12T17:31:27.073Z,10.40
2023-04-12T17:33:54.818Z,10.30
2023-04-12T17:36:22.392Z,10.10
2023-04-12T17:38:50.252Z,10.00
2023-04-12T17:41:17.235Z,10.00
2023-04-12T17:43:48.589Z,9.90
2023-04-12T17:46:16.661Z,9.80
2023-04-12T17:48:45.860Z,9.70
2023-04-12T17:51:27.809Z,9.70
2023-04-12T17:53:58.981Z,9.60
2023-04-12T17:56:28.201Z,9.60
2023-04-12T17:58:59.086Z,9.60
2023-04-12T18:01:26.195Z,9.50
2023-04-12T18:03:57.787Z,9.50
2023-04-12T18:06:25.381Z,9.40
2023-04-12T18:08:54.047Z,9.40
2023-04-12T18:11:23.281Z,9.40
2023-04-12T18:13:50.508Z,9.40
2023-04-12T18:16:18.969Z,9.30
2023-04-12T18:22:03.317Z,9.30
2023-04-12T18:24:30.665Z,9.20
2023-04-12T18:27:01.518Z,9.10
2023-04-12T18:29:33.606Z,9.10
2023-04-12T18:32:00.592Z,9.10
2023-04-12T18:34:32.572Z,9.10
2023-04-12T18:37:04.308Z,9.20
2023-04-12T18:39:35.634Z,9.10
2023-04-12T18:42:06.113Z,9.20
2023-04-12T18:44:48.382Z,9.20
2023-04-12T18:47:17.603Z,9.20
2023-04-12T18:49:46.911Z,9.20
2023-04-12T18:52:15.247Z,9.30
2023-04-12T18:54:42.279Z,9.30
2023-04-12T18:57:11.153Z,9.20
2023-04-12T18:59:38.334Z,9.30
2023-04-12T19:02:07.743Z,9.20
2023-04-12T19:04:42.149Z,9.10
2023-04-12T19:07:09.210Z,9.00
2023-04-12T19:09:37.382Z,9.10
2023-04-12T19:12:14.327Z,9.00
2023-04-12T19:14:47.001Z,9.00
2023-04-12T19:17:27.981Z,8.90
2023-04-12T19:19:55.732Z,8.90
2023-04-12T19:22:30.157Z,8.90
2023-04-12T19:24:57.504Z,8.80
2023-04-12T19:27:25.427Z,8.90
2023-04-12T19:29:53.617Z,8.90
2023-04-12T19:32:22.009Z,8.80
2023-04-12T19:34:50.249Z,8.80
2023-04-12T19:37:19.159Z,8.80
2023-04-12T19:39:46.211Z,8.80
2023-04-12T19:42:16.006Z,8.90
2023-04-12T19:44:43.156Z,8.90
2023-04-12T19:47:12.758Z,8.90
2023-04-12T19:49:40.754Z,8.80
2023-04-12T19:52:10.585Z,8.80
2023-04-12T19:54:37.578Z,8.90
2023-04-12T19:57:05.576Z,8.90
2023-04-12T19:59:35.401Z,9.00
2023-04-12T20:02:03.366Z,9.00
2023-04-12T20:04:31.473Z,9.00
2023-04-12T20:07:07.639Z,9.00
2023-04-12T20:09:35.939Z,9.00
2023-04-12T20:12:04.292Z,9.00
2023-04-12T20:14:32.541Z,9.00
2023-04-12T20:17:02.644Z,9.00
2023-04-12T20:19:29.664Z,9.10
2023-04-12T20:22:02.026Z,9.00
2023-04-12T20:24:34.415Z,9.00
2023-04-12T20:27:03.810Z,9.00
2023-04-12T20:29:33.355Z,9.10
2023-04-12T20:32:04.648Z,9.10
2023-04-12T20:34:33.019Z,9.10
2023-04-12T20:37:02.444Z,9.20
2023-04-12T20:39:30.725Z,9.10
2023-04-12T20:42:01.509Z,9.10
2023-04-12T20:44:28.396Z,9.10
2023-04-12T20:46:56.243Z,9.20
2023-04-12T20:49:28.798Z,9.20
2023-04-12T20:51:59.092Z,9.10
2023-04-12T20:54:29.963Z,9.00
2023-04-12T20:56:59.965Z,9.00
2023-04-12T20:59:30.410Z,9.00
2023-04-12T21:02:00.392Z,9.00
2023-04-12T21:04:28.213Z,9.10
2023-04-12T21:06:58.013Z,9.00
2023-04-12T21:09:28.979Z,9.10
2023-04-12T21:12:02.054Z,9.10
2023-04-12T21:14:30.613Z,9.00
2023-04-12T21:16:57.994Z,8.90
2023-04-12T21:19:24.946Z,8.70
2023-04-12T21:21:52.418Z,8.70
2023-04-12T21:24:20.465Z,8.50
2023-04-12T21:26:57.489Z,8.30
2023-04-12T21:29:24.787Z,8.20
2023-04-12T21:31:51.837Z,8.10
2023-04-12T21:34:19.908Z,8.20
2023-04-12T21:36:48.776Z,8.00
2023-04-12T21:39:16.214Z,7.90
2023-04-12T21:41:43.324Z,7.90
2023-04-12T21:44:13.513Z,7.90
2023-04-12T21:46:40.640Z,7.90
2023-04-12T21:49:07.555Z,7.90
2023-04-12T21:51:34.793Z,7.90
2023-04-12T21:54:02.057Z,7.90
2023-04-12T21:56:30.006Z,8.00
2023-04-12T21:59:01.970Z,8.00
2023-04-12T22:01:32.999Z,8.00
2023-04-12T22:04:00.953Z,7.90
2023-04-12T22:06:34.252Z,7.80
2023-04-12T22:09:04.525Z,7.70
2023-04-12T22:11:32.521Z,7.60
2023-04-12T22:14:00.925Z,7.50
2023-04-12T22:16:28.937Z,7.40
2023-04-12T22:19:01.527Z,7.30
2023-04-12T22:21:31.428Z,7.20
2023-04-12T22:24:00.326Z,7.10
2023-04-12T22:26:28.704Z,7.10
2023-04-12T22:28:55.646Z,7.10
2023-04-12T22:31:24.657Z,7.10
2023-04-12T22:33:54.956Z,7.00
2023-04-12T22:36:28.432Z,7.00
2023-04-12T22:38:56.269Z,7.10
2023-04-12T22:41:28.386Z,7.10
2023-04-12T22:44:01.220Z,7.20
2023-04-12T22:46:33.021Z,7.10
2023-04-12T22:49:01.157Z,7.20
2023-04-12T22:51:28.401Z,7.10
2023-04-12T22:53:55.748Z,7.20
2023-04-12T22:56:23.051Z,7.30
2023-04-12T22:58:50.613Z,7.30
2023-04-12T23:01:18.875Z,7.30
2023-04-12T23:03:46.022Z,7.30
2023-04-12T23:06:14.316Z,7.30
2023-04-12T23:08:43.760Z,7.40
2023-04-12T23:11:14.428Z,7.40
2023-04-12T23:13:41.355Z,7.40
2023-04-12T23:16:08.650Z,7.40
2023-04-12T23:18:37.834Z,7.40
2023-04-12T23:21:09.291Z,7.50
2023-04-12T23:23:36.423Z,7.50
2023-04-12T23:26:05.468Z,7.50
2023-04-12T23:28:35.140Z,7.50
2023-04-12T23:31:02.020Z,7.50
2023-04-12T23:33:30.161Z,7.50
2023-04-12T23:36:03.313Z,7.50
2023-04-12T23:38:34.003Z,7.50
2023-04-12T23:41:02.446Z,7.50
2023-04-12T23:43:30.821Z,7.40
2023-04-12T23:45:59.151Z,7.40
2023-04-12T23:48:25.994Z,7.50
2023-04-12T23:50:56.437Z,7.50
2023-04-12T23:53:23.531Z,7.50
2023-04-12T23:55:52.496Z,7.50
2023-04-12T23:58:22.022Z,7.50
